Butes — A8UR6 — position and weather

sailwx.info

Track history (hours):
 
Tides and Currents Weather Stations Pressure Air Temp Water Temp Dewpoint Dewpoint Depression Visibility Wind Speed Wind Dir Waves Ship Positions

Butes

Last reported at 2014-Jul-27 20:30 UTC. Time now 2014-Aug-01 10:01 UTC.
Position N 43°23' W 003°08'.

Length 90 m; draft 5.5 m.

Type: Cargo ship. MMSI: 636091937.

Date/timePositionNaut miles runAvg speedWind from/ knotsBaromVisibWave heightAir tempDewpointWater temp
2014-Jul-27 20:30N 43°23' W 003°08'0 0.1
2014-Jul-27 19:33N 43°23' W 003°08'0 0.1
2014-Jul-27 18:33N 43°23' W 003°09'0 0.0
2014-Jul-27 17:33N 43°23' W 003°08'0 0.0
2014-Jul-27 16:33N 43°23' W 003°08'0 0.0
2014-Jul-27 15:30N 43°23' W 003°08'0 0.0
2014-Jul-26 10:33N 43°23' W 003°08'0 0.0
2014-Jul-26 09:33N 43°23' W 003°08'0 0.0
2014-Jul-26 08:33N 43°23' W 003°08'0 0.1
2014-Jul-26 07:33N 43°23' W 003°08'0 0.0
2014-Jul-26 06:33N 43°23' W 003°08'0 0.0
2014-Jul-26 05:33N 43°23' W 003°08'0 0.0
2014-Jul-26 04:33N 43°23' W 003°08'0 0.0
2014-Jul-26 03:33N 43°23' W 003°08'0 0.0
2014-Jul-26 02:33N 43°23' W 003°08'0 0.0
2014-Jul-26 01:33N 43°23' W 003°08'0 0.0
2014-Jul-26 00:33N 43°23' W 003°08'0 0.0
2014-Jul-25 23:33N 43°23' W 003°08'0 0.0
2014-Jul-25 22:33N 43°23' W 003°08'0 0.0
2014-Jul-25 21:33N 43°23' W 003°08'194 7.2
2014-Jul-24 18:33N 46°23' W 004°53'277 6.2
2014-Jul-22 22:16N 50°18' W 001°14'1010.2
2014-Jul-22 21:19N 50°20' W 000°59'17 8.2
2014-Jul-22 19:18N 50°25' W 000°34'6 7.2
2014-Jul-22 18:30N 50°26' W 000°25'28 7.2
2014-Jul-22 14:33N 50°34' E 000°18'9 9.1
2014-Jul-22 13:33N 50°37' E 000°31'9 9.3
2014-Jul-22 12:33N 50°42' E 000°43'27 8.4
2014-Jul-22 09:22N 50°59' E 001°17'5 6.7
2014-Jul-22 08:33N 51°02' E 001°24'7 7.4
2014-Jul-22 07:33N 51°07' E 001°32'8 7.7
2014-Jul-22 06:34N 51°12' E 001°41'9 9.1
2014-Jul-22 05:34N 51°21' E 001°43'9 9.4
2014-Jul-22 04:34N 51°31' E 001°45'9 9.4
2014-Jul-22 03:34N 51°40' E 001°44'9 8.9
2014-Jul-22 02:33N 51°49' E 001°44'8 8.1
2014-Jul-22 01:34N 51°57' E 001°45'7 7.5
2014-Jul-22 00:33N 52°04' E 001°47'7 7.0
2014-Jul-21 23:33N 52°11' E 001°49'13 6.6
2014-Jul-21 21:32N 52°25' E 001°53'8 6.5
2014-Jul-21 20:18N 52°32' E 001°55'0 6.5
2014-Jul-21 20:18N 52°32' E 001°55'8 7.2
2014-Jul-21 19:13N 52°40' E 001°57'5 8.0
2014-Jul-21 18:33N 52°45' E 001°57'8 8.3
2014-Jul-21 17:33N 52°51' E 001°47'9 9.1
2014-Jul-21 16:33N 52°56' E 001°35'10 9.6
2014-Jul-21 15:34N 53°04' E 001°25'11 9.7
2014-Jul-21 14:25N 53°12' E 001°13'26 8.9
2014-Jul-21 11:31N 53°28' E 000°40'9 9.6
2014-Jul-21 10:34N 53°37' E 000°32'9 9.2
2014-Jul-21 09:34N 53°45' E 000°25'9 8.5
2014-Jul-21 08:32N 53°52' E 000°18'8 7.8
2014-Jul-21 07:33N 53°59' E 000°12'7 7.4
2014-Jul-21 06:33N 54°06' E 000°06'8 7.6
2014-Jul-21 05:33N 54°12' W 000°02'7 7.2
2014-Jul-21 04:33N 54°17' W 000°10'7 7.4
2014-Jul-21 03:33N 54°23' W 000°17'7 7.4
2014-Jul-21 02:33N 54°29' W 000°25'8 7.7
2014-Jul-21 01:32N 54°34' W 000°36'8 8.1
2014-Jul-21 00:33N 54°38' W 000°48'8 8.1
2014-Jul-20 23:33N 54°40' W 001°02'6 0.8
2014-Jul-20 16:11N 54°36' W 001°09'0 0.0
2014-Jul-20 15:26N 54°36' W 001°09'0 0.0
2014-Jul-20 14:26N 54°36' W 001°09'0 0.0
2014-Jul-20 10:20N 54°36' W 001°09'0 0.0
2014-Jul-20 09:26N 54°36' W 001°09'0 0.0
2014-Jul-20 08:26N 54°36' W 001°09'0 0.0
2014-Jul-20 07:29N 54°36' W 001°09'0 0.0
2014-Jul-20 06:29N 54°36' W 001°09'0 0.0
2014-Jul-20 05:14N 54°36' W 001°09'0 0.0
2014-Jul-19 10:32N 54°36' W 001°09'0 0.0
2014-Jul-19 09:20N 54°36' W 001°09'0 0.0
2014-Jul-19 08:32N 54°36' W 001°09'0 0.0
2014-Jul-19 06:05N 54°36' W 001°09'7 0.7
2014-Jul-18 20:33N 54°40' W 001°00'8 8.0
2014-Jul-18 19:33N 54°37' W 000°48'8 7.6
2014-Jul-18 18:33N 54°34' W 000°36'8 8.3
2014-Jul-18 17:33N 54°29' W 000°24'9 9.1
2014-Jul-18 16:33N 54°21' W 000°15'1010.0
2014-Jul-18 15:34N 54°14' W 000°04'1110.7
2014-Jul-18 14:33N 54°05' E 000°06'1410.3
2014-Jul-18 13:14N 53°53' E 000°17'17 9.9
2014-Jul-18 11:32N 53°38' E 000°30'8 8.2
2014-Jul-18 10:32N 53°31' E 000°37'34 8.3
2014-Jul-18 06:24N 53°08' E 001°18'910.8
2014-Jul-18 05:33N 53°01' E 001°28'1111.0
2014-Jul-18 04:33N 52°53' E 001°42'16 8.1
2014-Jul-18 02:33N 52°40' E 001°58'9 6.6
2014-Jul-18 01:14N 52°32' E 001°56'4 6.0
2014-Jul-18 00:33N 52°28' E 001°55'6 6.1
2014-Jul-17 23:33N 52°22' E 001°54'7 6.7
2014-Jul-17 22:32N 52°15' E 001°52'8 8.0
2014-Jul-17 21:33N 52°07' E 001°51'10 9.6
2014-Jul-17 20:33N 51°58' E 001°49'  
Track history (hours):
 
Tides and Currents Weather Stations Pressure Air Temp Water Temp Dewpoint Dewpoint Depression Visibility Wind Speed Wind Dir Waves Ship Positions

Butes

Last reported at 2014-Jul-27 20:30 UTC. Time now 2014-Aug-01 10:01 UTC.
Position N 43°23' W 003°08'.

Length 90 m; draft 5.5 m.

Type: Cargo ship. MMSI: 636091937.

Date/timePositionNaut miles runAvg speedWind from/ knotsBaromVisibWave heightAir tempDewpointWater temp
2014-Jul-27 20:30N 43°23' W 003°08'0 0.1
2014-Jul-27 19:33N 43°23' W 003°08'0 0.1
2014-Jul-27 18:33N 43°23' W 003°09'0 0.0
2014-Jul-27 17:33N 43°23' W 003°08'0 0.0
2014-Jul-27 16:33N 43°23' W 003°08'0 0.0
2014-Jul-27 15:30N 43°23' W 003°08'0 0.0
2014-Jul-26 10:33N 43°23' W 003°08'0 0.0
2014-Jul-26 09:33N 43°23' W 003°08'0 0.0
2014-Jul-26 08:33N 43°23' W 003°08'0 0.1
2014-Jul-26 07:33N 43°23' W 003°08'0 0.0
2014-Jul-26 06:33N 43°23' W 003°08'0 0.0
2014-Jul-26 05:33N 43°23' W 003°08'0 0.0
2014-Jul-26 04:33N 43°23' W 003°08'0 0.0
2014-Jul-26 03:33N 43°23' W 003°08'0 0.0
2014-Jul-26 02:33N 43°23' W 003°08'0 0.0
2014-Jul-26 01:33N 43°23' W 003°08'0 0.0
2014-Jul-26 00:33N 43°23' W 003°08'0 0.0
2014-Jul-25 23:33N 43°23' W 003°08'0 0.0
2014-Jul-25 22:33N 43°23' W 003°08'0 0.0
2014-Jul-25 21:33N 43°23' W 003°08'194 7.2
2014-Jul-24 18:33N 46°23' W 004°53'277 6.2
2014-Jul-22 22:16N 50°18' W 001°14'1010.2
2014-Jul-22 21:19N 50°20' W 000°59'17 8.2
2014-Jul-22 19:18N 50°25' W 000°34'6 7.2
2014-Jul-22 18:30N 50°26' W 000°25'28 7.2
2014-Jul-22 14:33N 50°34' E 000°18'9 9.1
2014-Jul-22 13:33N 50°37' E 000°31'9 9.3
2014-Jul-22 12:33N 50°42' E 000°43'27 8.4
2014-Jul-22 09:22N 50°59' E 001°17'5 6.7
2014-Jul-22 08:33N 51°02' E 001°24'7 7.4
2014-Jul-22 07:33N 51°07' E 001°32'8 7.7
2014-Jul-22 06:34N 51°12' E 001°41'9 9.1
2014-Jul-22 05:34N 51°21' E 001°43'9 9.4
2014-Jul-22 04:34N 51°31' E 001°45'9 9.4
2014-Jul-22 03:34N 51°40' E 001°44'9 8.9
2014-Jul-22 02:33N 51°49' E 001°44'8 8.1
2014-Jul-22 01:34N 51°57' E 001°45'7 7.5
2014-Jul-22 00:33N 52°04' E 001°47'7 7.0
2014-Jul-21 23:33N 52°11' E 001°49'13 6.6
2014-Jul-21 21:32N 52°25' E 001°53'8 6.5
2014-Jul-21 20:18N 52°32' E 001°55'0 6.5
2014-Jul-21 20:18N 52°32' E 001°55'8 7.2
2014-Jul-21 19:13N 52°40' E 001°57'5 8.0
2014-Jul-21 18:33N 52°45' E 001°57'8 8.3
2014-Jul-21 17:33N 52°51' E 001°47'9 9.1
2014-Jul-21 16:33N 52°56' E 001°35'10 9.6
2014-Jul-21 15:34N 53°04' E 001°25'11 9.7
2014-Jul-21 14:25N 53°12' E 001°13'26 8.9
2014-Jul-21 11:31N 53°28' E 000°40'9 9.6
2014-Jul-21 10:34N 53°37' E 000°32'9 9.2
2014-Jul-21 09:34N 53°45' E 000°25'9 8.5
2014-Jul-21 08:32N 53°52' E 000°18'8 7.8
2014-Jul-21 07:33N 53°59' E 000°12'7 7.4
2014-Jul-21 06:33N 54°06' E 000°06'8 7.6
2014-Jul-21 05:33N 54°12' W 000°02'7 7.2
2014-Jul-21 04:33N 54°17' W 000°10'7 7.4
2014-Jul-21 03:33N 54°23' W 000°17'7 7.4
2014-Jul-21 02:33N 54°29' W 000°25'8 7.7
2014-Jul-21 01:32N 54°34' W 000°36'8 8.1
2014-Jul-21 00:33N 54°38' W 000°48'8 8.1
2014-Jul-20 23:33N 54°40' W 001°02'6 0.8
2014-Jul-20 16:11N 54°36' W 001°09'0 0.0
2014-Jul-20 15:26N 54°36' W 001°09'0 0.0
2014-Jul-20 14:26N 54°36' W 001°09'0 0.0
2014-Jul-20 10:20N 54°36' W 001°09'0 0.0
2014-Jul-20 09:26N 54°36' W 001°09'0 0.0
2014-Jul-20 08:26N 54°36' W 001°09'0 0.0
2014-Jul-20 07:29N 54°36' W 001°09'0 0.0
2014-Jul-20 06:29N 54°36' W 001°09'0 0.0
2014-Jul-20 05:14N 54°36' W 001°09'0 0.0
2014-Jul-19 10:32N 54°36' W 001°09'0 0.0
2014-Jul-19 09:20N 54°36' W 001°09'0 0.0
2014-Jul-19 08:32N 54°36' W 001°09'0 0.0
2014-Jul-19 06:05N 54°36' W 001°09'7 0.7
2014-Jul-18 20:33N 54°40' W 001°00'8 8.0
2014-Jul-18 19:33N 54°37' W 000°48'8 7.6
2014-Jul-18 18:33N 54°34' W 000°36'8 8.3
2014-Jul-18 17:33N 54°29' W 000°24'9 9.1
2014-Jul-18 16:33N 54°21' W 000°15'1010.0
2014-Jul-18 15:34N 54°14' W 000°04'1110.7
2014-Jul-18 14:33N 54°05' E 000°06'1410.3
2014-Jul-18 13:14N 53°53' E 000°17'17 9.9
2014-Jul-18 11:32N 53°38' E 000°30'8 8.2
2014-Jul-18 10:32N 53°31' E 000°37'34 8.3
2014-Jul-18 06:24N 53°08' E 001°18'910.8
2014-Jul-18 05:33N 53°01' E 001°28'1111.0
2014-Jul-18 04:33N 52°53' E 001°42'16 8.1
2014-Jul-18 02:33N 52°40' E 001°58'9 6.6
2014-Jul-18 01:14N 52°32' E 001°56'4 6.0
2014-Jul-18 00:33N 52°28' E 001°55'6 6.1
2014-Jul-17 23:33N 52°22' E 001°54'7 6.7
2014-Jul-17 22:32N 52°15' E 001°52'8 8.0
2014-Jul-17 21:33N 52°07' E 001°51'10 9.6
2014-Jul-17 20:33N 51°58' E 001°49'  

Dump ship's entire track history